Time;durP1;ratioP1;P1;durP2;ratioP2;P2;SDS_P1;SDS_P2;PMS_P1;PMS_P2;Temp;Humidity;BMP_temperature;BMP_pressure;BME280_temperature;BME280_humidity;BME280_pressure;Samples;Min_cycle;Max_cycle;Signal;HPM_P1;HPM_P2
2023/07/27 00:00:06;;;;;;;1.67;1.58;;;;;;;;;;4993737;28;20030;-82
2023/07/27 00:02:32;;;;;;;2.10;1.90;;;;;;;;;;5013964;28;20144;-81
2023/07/27 00:04:58;;;;;;;2.53;1.60;;;;;;;;;;4993786;28;20057;-82
2023/07/27 00:07:26;;;;;;;2.15;1.98;;;;;;;;;;4991774;28;20038;-81
2023/07/27 00:09:51;;;;;;;2.92;1.80;;;;;;;;;;4993617;28;20049;-81
2023/07/27 00:12:17;;;;;;;2.03;1.83;;;;;;;;;;4996666;28;20022;-80
2023/07/27 00:14:42;;;;;;;2.03;1.92;;;;;;;;;;4995224;28;20033;-82
2023/07/27 00:17:08;;;;;;;2.28;1.80;;;;;;;;;;4980834;28;20102;-81
2023/07/27 00:19:33;;;;;;;3.03;2.13;;;;;;;;;;4972359;28;20042;-81
2023/07/27 00:21:58;;;;;;;2.05;1.85;;;;;;;;;;4996064;28;20062;-80
2023/07/27 00:24:24;;;;;;;2.75;1.80;;;;;;;;;;4994821;28;20094;-79
2023/07/27 00:26:49;;;;;;;5.18;1.80;;;;;;;;;;5009984;28;20481;-81
2023/07/27 00:29:14;;;;;;;2.13;1.90;;;;;;;;;;4998765;28;20027;-81
2023/07/27 00:31:40;;;;;;;2.00;1.90;;;;;;;;;;4995557;28;20053;-82
2023/07/27 00:34:05;;;;;;;1.83;1.67;;;;;;;;;;4999470;28;20035;-82
2023/07/27 00:36:30;;;;;;;2.63;1.90;;;;;;;;;;4998048;28;20062;-81
2023/07/27 00:38:55;;;;;;;2.13;1.90;;;;;;;;;;4998427;28;20022;-82
2023/07/27 00:41:21;;;;;;;2.08;1.88;;;;;;;;;;4996248;28;20080;-82
2023/07/27 00:43:46;;;;;;;2.20;2.00;;;;;;;;;;4993841;28;20062;-82
2023/07/27 00:46:11;;;;;;;1.75;1.65;;;;;;;;;;4992796;28;20126;-81
2023/07/27 00:48:39;;;;;;;2.17;1.90;;;;;;;;;;4995612;28;20813;-81
2023/07/27 00:51:06;;;;;;;1.80;1.70;;;;;;;;;;4997443;28;20067;-82
2023/07/27 00:53:32;;;;;;;2.10;1.90;;;;;;;;;;4995525;28;20121;-82
2023/07/27 00:55:58;;;;;;;1.80;1.70;;;;;;;;;;4992971;28;20061;-82
2023/07/27 00:58:24;;;;;;;1.98;1.88;;;;;;;;;;4995297;28;20034;-82
2023/07/27 01:00:50;;;;;;;8.35;1.90;;;;;;;;;;4995628;28;20490;-79
2023/07/27 01:03:15;;;;;;;2.40;2.00;;;;;;;;;;4997154;28;20113;-79
2023/07/27 01:05:40;;;;;;;2.45;2.10;;;;;;;;;;4996053;28;20100;-82
2023/07/27 01:08:06;;;;;;;1.92;1.67;;;;;;;;;;4998198;28;20030;-82
2023/07/27 01:10:47;;;;;;;2.53;1.95;;;;;;;;;;4993273;28;20041;-81
2023/07/27 01:13:20;;;;;;;3.65;1.92;;;;;;;;;;4997569;28;20027;-80
2023/07/27 01:15:51;;;;;;;2.97;2.17;;;;;;;;;;5001294;28;20038;-81
2023/07/27 01:18:28;;;;;;;5.75;2.08;;;;;;;;;;4928595;28;20261;-79
2023/07/27 01:21:04;;;;;;;2.90;2.10;;;;;;;;;;5002310;28;20133;-82
2023/07/27 01:24:00;;;;;;;3.10;2.00;;;;;;;;;;4998429;28;20041;-80
2023/07/27 01:26:56;;;;;;;3.45;2.00;;;;;;;;;;5000899;28;20026;-80
2023/07/27 01:29:40;;;;;;;4.78;2.35;;;;;;;;;;4997804;28;20049;-82
2023/07/27 01:32:07;;;;;;;2.58;1.90;;;;;;;;;;4998823;28;20038;-83
2023/07/27 01:34:34;;;;;;;4.07;2.00;;;;;;;;;;5001784;28;20094;-80
2023/07/27 01:37:02;;;;;;;3.22;2.22;;;;;;;;;;4999640;28;20068;-79
2023/07/27 01:39:30;;;;;;;3.00;2.00;;;;;;;;;;5007881;28;20086;-80
2023/07/27 01:41:56;;;;;;;3.25;2.17;;;;;;;;;;5001794;28;20022;-80
2023/07/27 01:44:24;;;;;;;3.13;1.90;;;;;;;;;;4999783;28;20046;-80
2023/07/27 01:46:51;;;;;;;2.63;2.28;;;;;;;;;;5000776;28;20030;-82
2023/07/27 01:49:17;;;;;;;4.40;2.15;;;;;;;;;;5001481;28;20125;-82
2023/07/27 01:51:43;;;;;;;2.50;2.13;;;;;;;;;;4999415;28;20038;-81
2023/07/27 01:54:10;;;;;;;2.95;2.55;;;;;;;;;;4999977;28;20030;-80
2023/07/27 01:56:37;;;;;;;2.88;1.92;;;;;;;;;;5002369;28;20628;-80
2023/07/27 01:59:03;;;;;;;3.10;2.15;;;;;;;;;;5003817;28;20026;-82
2023/07/27 02:01:29;;;;;;;6.47;2.22;;;;;;;;;;4999600;28;20041;-81
2023/07/27 02:03:55;;;;;;;2.50;2.00;;;;;;;;;;5003851;28;20026;-81
2023/07/27 02:06:20;;;;;;;6.93;2.35;;;;;;;;;;5003749;28;20026;-80
2023/07/27 02:08:45;;;;;;;2.80;2.25;;;;;;;;;;5001327;28;20025;-82
2023/07/27 02:11:12;;;;;;;3.10;2.22;;;;;;;;;;5001501;28;20090;-79
2023/07/27 02:13:53;;;;;;;3.10;2.13;;;;;;;;;;4998890;28;20077;-80
2023/07/27 02:16:44;;;;;;;5.90;2.50;;;;;;;;;;4999946;23;20046;-77
2023/07/27 02:19:12;;;;;;;6.78;2.58;;;;;;;;;;4982834;28;20035;-78
2023/07/27 02:21:38;;;;;;;2.70;2.40;;;;;;;;;;4957738;28;20446;-77
2023/07/27 02:24:04;;;;;;;3.22;2.47;;;;;;;;;;4950448;28;20047;-77
2023/07/27 02:26:30;;;;;;;3.33;1.92;;;;;;;;;;4960735;28;20022;-78
2023/07/27 02:28:56;;;;;;;6.13;2.50;;;;;;;;;;4907328;28;20047;-78
2023/07/27 02:31:23;;;;;;;4.97;2.20;;;;;;;;;;4895366;29;20321;-77
2023/07/27 02:33:48;;;;;;;1.98;1.88;;;;;;;;;;4894167;28;20044;-77
2023/07/27 02:36:13;;;;;;;3.33;2.00;;;;;;;;;;4893889;28;20024;-78
2023/07/27 02:38:38;;;;;;;1.98;1.77;;;;;;;;;;4894586;28;20033;-78
2023/07/27 02:41:04;;;;;;;5.47;2.08;;;;;;;;;;4894065;29;20068;-76
2023/07/27 02:43:29;;;;;;;3.15;2.00;;;;;;;;;;4907602;28;20532;-77
2023/07/27 02:46:02;;;;;;;1.95;1.77;;;;;;;;;;4894476;28;20045;-76
2023/07/27 02:48:27;;;;;;;2.95;1.83;;;;;;;;;;4892166;28;20045;-78
2023/07/27 02:50:52;;;;;;;2.03;1.80;;;;;;;;;;4894518;29;20020;-75
2023/07/27 02:53:18;;;;;;;2.13;1.92;;;;;;;;;;4894182;28;20098;-77
2023/07/27 02:55:56;;;;;;;2.78;2.13;;;;;;;;;;4891525;28;20036;-76
2023/07/27 02:58:22;;;;;;;2.13;1.92;;;;;;;;;;4895053;28;20029;-78
2023/07/27 03:00:54;;;;;;;4.85;1.85;;;;;;;;;;4895484;28;20036;-76
2023/07/27 03:03:19;;;;;;;2.42;2.10;;;;;;;;;;4910370;28;20041;-76
2023/07/27 03:05:45;;;;;;;2.00;1.90;;;;;;;;;;4896116;28;20021;-78
2023/07/27 03:08:10;;;;;;;2.53;2.08;;;;;;;;;;4897483;29;20068;-78
2023/07/27 03:10:36;;;;;;;2.22;2.03;;;;;;;;;;4892883;28;20491;-78
2023/07/27 03:13:01;;;;;;;2.38;2.10;;;;;;;;;;4894332;29;20033;-78
2023/07/27 03:15:27;;;;;;;2.47;2.20;;;;;;;;;;4893853;28;20044;-78
2023/07/27 03:17:52;;;;;;;2.50;2.30;;;;;;;;;;4893343;28;20473;-78
2023/07/27 03:20:17;;;;;;;2.53;2.17;;;;;;;;;;4891678;28;20100;-77
2023/07/27 03:22:42;;;;;;;2.13;1.92;;;;;;;;;;4893645;29;20079;-78
2023/07/27 03:25:08;;;;;;;2.65;2.03;;;;;;;;;;4894044;29;20431;-78
2023/07/27 03:27:33;;;;;;;2.92;2.33;;;;;;;;;;4893940;28;20033;-77
2023/07/27 03:29:58;;;;;;;3.55;2.10;;;;;;;;;;4896024;29;20488;-76
2023/07/27 03:32:24;;;;;;;2.47;1.92;;;;;;;;;;4893733;29;20045;-78
2023/07/27 03:34:49;;;;;;;4.55;2.45;;;;;;;;;;4892854;28;20404;-77
2023/07/27 03:37:14;;;;;;;3.35;2.15;;;;;;;;;;4892790;29;20047;-78
2023/07/27 03:39:40;;;;;;;2.60;2.25;;;;;;;;;;4891994;28;20112;-77
2023/07/27 03:42:05;;;;;;;4.72;2.20;;;;;;;;;;4890993;28;20060;-78
2023/07/27 03:44:31;;;;;;;2.15;1.95;;;;;;;;;;4890712;29;20025;-78
2023/07/27 03:46:56;;;;;;;4.20;2.20;;;;;;;;;;4891940;28;20516;-78
2023/07/27 03:49:21;;;;;;;2.35;2.15;;;;;;;;;;4892245;28;20087;-78
2023/07/27 03:51:47;;;;;;;3.90;2.30;;;;;;;;;;4891499;29;20037;-79
2023/07/27 03:54:12;;;;;;;3.30;1.90;;;;;;;;;;4891797;28;20103;-75
2023/07/27 03:56:37;;;;;;;2.05;1.85;;;;;;;;;;4904580;28;20075;-77
2023/07/27 03:59:02;;;;;;;2.83;2.00;;;;;;;;;;4890856;28;20037;-77
2023/07/27 04:01:28;;;;;;;2.17;1.70;;;;;;;;;;4891689;28;20492;-77
2023/07/27 04:03:53;;;;;;;2.05;1.88;;;;;;;;;;4889864;28;20036;-75
2023/07/27 04:06:18;;;;;;;3.15;2.20;;;;;;;;;;4890629;29;20515;-77
2023/07/27 04:08:43;;;;;;;2.53;1.73;;;;;;;;;;4890426;28;20028;-79
2023/07/27 04:11:09;;;;;;;2.97;1.90;;;;;;;;;;4897003;28;20037;-77
2023/07/27 04:13:34;;;;;;;2.28;1.85;;;;;;;;;;4892643;28;20043;-79
2023/07/27 04:15:59;;;;;;;2.22;2.00;;;;;;;;;;4892979;28;20095;-78
2023/07/27 04:18:25;;;;;;;3.72;2.20;;;;;;;;;;4910178;29;20047;-79
2023/07/27 04:20:50;;;;;;;3.75;1.92;;;;;;;;;;4909706;28;20024;-77
2023/07/27 04:23:15;;;;;;;2.10;1.98;;;;;;;;;;4892274;28;20496;-77
2023/07/27 04:25:40;;;;;;;1.90;1.80;;;;;;;;;;4889570;28;20144;-78
2023/07/27 04:28:06;;;;;;;3.17;1.77;;;;;;;;;;4892321;29;20091;-79
2023/07/27 04:30:31;;;;;;;2.45;1.70;;;;;;;;;;4892350;28;20341;-79
2023/07/27 04:32:56;;;;;;;1.92;1.70;;;;;;;;;;4894706;28;20024;-79
2023/07/27 04:35:21;;;;;;;1.80;1.70;;;;;;;;;;4909354;28;20064;-78
2023/07/27 04:37:47;;;;;;;1.80;1.60;;;;;;;;;;4893768;28;20044;-76
2023/07/27 04:40:13;;;;;;;3.75;1.83;;;;;;;;;;4897767;28;20040;-75
2023/07/27 04:42:39;;;;;;;6.20;1.80;;;;;;;;;;4890070;28;20040;-76
2023/07/27 04:45:04;;;;;;;1.70;1.60;;;;;;;;;;4892431;28;20024;-79
2023/07/27 04:47:30;;;;;;;2.95;1.70;;;;;;;;;;4896896;28;20020;-77
2023/07/27 04:49:55;;;;;;;2.42;1.75;;;;;;;;;;4894094;28;20036;-77
2023/07/27 04:52:21;;;;;;;2.00;1.75;;;;;;;;;;4893846;28;20043;-77
2023/07/27 04:54:46;;;;;;;2.83;1.73;;;;;;;;;;4892740;28;20045;-77
2023/07/27 04:57:11;;;;;;;4.97;1.65;;;;;;;;;;4904171;28;20031;-78
2023/07/27 04:59:36;;;;;;;2.72;1.40;;;;;;;;;;4899625;29;20043;-78
2023/07/27 05:02:02;;;;;;;1.95;1.63;;;;;;;;;;4949786;28;20041;-78
2023/07/27 05:04:27;;;;;;;1.70;1.60;;;;;;;;;;4970272;28;20390;-78
2023/07/27 05:06:52;;;;;;;1.40;1.30;;;;;;;;;;4997000;28;20042;-78
2023/07/27 05:09:18;;;;;;;1.80;1.50;;;;;;;;;;4991711;28;20026;-77
2023/07/27 05:11:43;;;;;;;2.15;1.63;;;;;;;;;;4996080;28;20022;-77
2023/07/27 05:14:08;;;;;;;1.77;1.67;;;;;;;;;;4996795;28;20042;-76
2023/07/27 05:16:33;;;;;;;1.75;1.60;;;;;;;;;;4997162;28;20027;-79
2023/07/27 05:18:59;;;;;;;1.60;1.50;;;;;;;;;;4998819;28;20038;-78
2023/07/27 05:21:24;;;;;;;2.83;1.50;;;;;;;;;;4993971;28;20494;-76
2023/07/27 05:23:50;;;;;;;2.35;1.58;;;;;;;;;;4996970;28;20030;-77
2023/07/27 05:26:15;;;;;;;1.98;1.65;;;;;;;;;;5010295;28;20046;-77
2023/07/27 05:28:40;;;;;;;2.65;2.08;;;;;;;;;;4995050;28;20053;-77
2023/07/27 05:31:07;;;;;;;1.73;1.63;;;;;;;;;;4995121;28;20120;-77
2023/07/27 05:33:32;;;;;;;1.80;1.70;;;;;;;;;;4994844;28;20034;-77
2023/07/27 05:35:58;;;;;;;4.28;2.05;;;;;;;;;;4995447;28;20418;-77
2023/07/27 05:38:23;;;;;;;3.30;1.73;;;;;;;;;;4994683;28;20039;-77
2023/07/27 05:40:48;;;;;;;2.85;1.85;;;;;;;;;;4993526;28;20469;-77
2023/07/27 05:43:14;;;;;;;1.80;1.70;;;;;;;;;;4993498;28;20045;-77
2023/07/27 05:45:39;;;;;;;1.85;1.67;;;;;;;;;;4994201;28;20113;-77
2023/07/27 05:48:05;;;;;;;1.85;1.75;;;;;;;;;;4994240;28;20030;-77
2023/07/27 05:50:31;;;;;;;1.95;1.73;;;;;;;;;;4995080;28;20084;-77
2023/07/27 05:52:56;;;;;;;1.67;1.58;;;;;;;;;;4994167;28;20570;-77
2023/07/27 05:55:21;;;;;;;1.85;1.75;;;;;;;;;;4994575;28;20031;-77
2023/07/27 05:57:47;;;;;;;3.53;2.17;;;;;;;;;;4993889;28;20081;-77
2023/07/27 06:00:12;;;;;;;2.92;2.03;;;;;;;;;;4990936;28;20014;-78
2023/07/27 06:02:38;;;;;;;2.83;1.85;;;;;;;;;;4992326;28;20240;-78
2023/07/27 06:05:03;;;;;;;2.10;1.90;;;;;;;;;;4989940;28;20038;-77
2023/07/27 06:07:28;;;;;;;3.95;2.22;;;;;;;;;;4993876;28;20039;-78
2023/07/27 06:09:54;;;;;;;3.38;1.80;;;;;;;;;;4991965;28;20080;-78
2023/07/27 06:12:19;;;;;;;2.47;1.83;;;;;;;;;;4991224;28;20377;-77
2023/07/27 06:14:44;;;;;;;2.08;1.60;;;;;;;;;;4994305;28;20092;-78
2023/07/27 06:17:10;;;;;;;2.20;1.80;;;;;;;;;;4991523;28;20042;-78
2023/07/27 06:19:36;;;;;;;2.15;1.73;;;;;;;;;;4989552;28;20049;-78
2023/07/27 06:22:01;;;;;;;2.25;1.70;;;;;;;;;;4990184;28;20082;-78
2023/07/27 06:24:26;;;;;;;3.38;2.08;;;;;;;;;;4990983;28;20041;-78
2023/07/27 06:26:52;;;;;;;2.42;1.85;;;;;;;;;;4992219;28;20022;-78
2023/07/27 06:29:17;;;;;;;2.17;1.80;;;;;;;;;;4990777;28;20040;-80
2023/07/27 06:31:42;;;;;;;1.65;1.55;;;;;;;;;;4989322;28;20057;-78
2023/07/27 06:34:08;;;;;;;2.28;1.70;;;;;;;;;;4991268;28;20054;-78
2023/07/27 06:36:33;;;;;;;2.08;1.70;;;;;;;;;;4990301;28;20085;-78
2023/07/27 06:38:59;;;;;;;1.80;1.70;;;;;;;;;;4990887;28;20394;-78
2023/07/27 06:41:25;;;;;;;1.95;1.67;;;;;;;;;;4990211;28;20212;-78
2023/07/27 06:43:51;;;;;;;2.55;2.00;;;;;;;;;;4993903;28;20031;-78
2023/07/27 06:46:18;;;;;;;2.38;1.75;;;;;;;;;;4992313;28;20041;-78
2023/07/27 06:48:43;;;;;;;2.15;1.60;;;;;;;;;;4989605;28;20049;-78
2023/07/27 06:51:09;;;;;;;3.92;1.70;;;;;;;;;;4993729;28;20018;-78
2023/07/27 06:53:34;;;;;;;2.25;1.70;;;;;;;;;;4989064;28;20038;-78
2023/07/27 06:55:59;;;;;;;2.08;1.83;;;;;;;;;;4990862;28;20504;-78
2023/07/27 06:58:25;;;;;;;32.58;2.35;;;;;;;;;;4977484;28;20046;-78
2023/07/27 07:00:50;;;;;;;7.55;2.05;;;;;;;;;;4987133;28;20044;-78
2023/07/27 07:03:15;;;;;;;1.90;1.80;;;;;;;;;;4990359;28;20021;-78
2023/07/27 07:05:40;;;;;;;4.40;1.63;;;;;;;;;;4994379;28;20406;-77
2023/07/27 07:08:06;;;;;;;1.58;1.48;;;;;;;;;;4995546;28;20064;-77
2023/07/27 07:10:31;;;;;;;2.13;1.85;;;;;;;;;;4990327;28;20517;-78
2023/07/27 07:12:57;;;;;;;2.95;1.80;;;;;;;;;;4992614;28;20034;-80
2023/07/27 07:15:22;;;;;;;2.10;1.63;;;;;;;;;;4994381;28;20081;-77
2023/07/27 07:17:47;;;;;;;3.15;1.80;;;;;;;;;;4991346;28;20034;-78
2023/07/27 07:20:14;;;;;;;2.08;1.73;;;;;;;;;;4989177;28;20050;-77
2023/07/27 07:22:39;;;;;;;3.65;1.85;;;;;;;;;;4988814;28;20540;-78
2023/07/27 07:25:05;;;;;;;1.83;1.73;;;;;;;;;;4988438;28;20039;-77
2023/07/27 07:27:30;;;;;;;1.80;1.70;;;;;;;;;;4985809;28;20102;-78
2023/07/27 07:29:55;;;;;;;3.22;2.08;;;;;;;;;;4985782;28;20121;-78
2023/07/27 07:32:21;;;;;;;1.85;1.75;;;;;;;;;;4991765;28;20045;-78
2023/07/27 07:34:46;;;;;;;2.40;2.05;;;;;;;;;;4989161;28;20065;-78
2023/07/27 07:37:11;;;;;;;2.00;1.80;;;;;;;;;;4990315;28;20099;-78
2023/07/27 07:39:36;;;;;;;2.72;1.65;;;;;;;;;;4988326;28;20092;-78
2023/07/27 07:42:02;;;;;;;3.72;1.80;;;;;;;;;;4991525;28;20386;-79
2023/07/27 07:44:27;;;;;;;2.30;1.95;;;;;;;;;;4989832;28;20654;-78
2023/07/27 07:46:53;;;;;;;2.80;2.15;;;;;;;;;;4992210;28;20038;-78
2023/07/27 07:49:18;;;;;;;2.03;1.83;;;;;;;;;;4988520;28;20110;-77
2023/07/27 07:51:43;;;;;;;2.28;1.92;;;;;;;;;;4990528;28;20045;-78
2023/07/27 07:54:09;;;;;;;3.83;1.88;;;;;;;;;;4988357;28;20145;-78
2023/07/27 07:56:35;;;;;;;2.92;2.05;;;;;;;;;;4986662;28;20034;-79
2023/07/27 07:59:01;;;;;;;3.25;2.03;;;;;;;;;;4989089;28;20042;-78
2023/07/27 08:01:26;;;;;;;2.28;2.03;;;;;;;;;;4985058;28;20030;-78
2023/07/27 08:03:52;;;;;;;2.42;1.80;;;;;;;;;;4987192;28;20049;-78
2023/07/27 08:06:17;;;;;;;6.55;1.92;;;;;;;;;;4988603;28;20061;-78
2023/07/27 08:08:43;;;;;;;2.85;1.77;;;;;;;;;;4986704;28;20577;-78
2023/07/27 08:11:08;;;;;;;2.28;1.90;;;;;;;;;;4985888;28;20520;-79
2023/07/27 08:13:34;;;;;;;2.25;1.98;;;;;;;;;;4990161;28;20042;-79
2023/07/27 08:15:59;;;;;;;2.38;1.75;;;;;;;;;;4986302;28;20034;-76
2023/07/27 08:18:25;;;;;;;1.90;1.80;;;;;;;;;;4983856;28;20052;-77
2023/07/27 08:21:03;;;;;;;2.08;1.83;;;;;;;;;;4984611;28;20061;-77
2023/07/27 08:23:29;;;;;;;2.35;1.70;;;;;;;;;;4928272;28;20095;-76
2023/07/27 08:25:56;;;;;;;5.93;2.00;;;;;;;;;;4944186;28;20038;-77
2023/07/27 08:28:21;;;;;;;2.40;1.70;;;;;;;;;;4975341;28;20033;-77
2023/07/27 08:30:47;;;;;;;2.33;1.70;;;;;;;;;;4958521;28;20030;-77
2023/07/27 08:33:13;;;;;;;6.75;2.08;;;;;;;;;;4963583;28;20393;-77
2023/07/27 08:35:38;;;;;;;2.03;1.75;;;;;;;;;;4945600;28;20030;-77
2023/07/27 08:38:04;;;;;;;10.88;2.60;;;;;;;;;;4952983;28;20414;-77
2023/07/27 08:40:30;;;;;;;3.55;1.90;;;;;;;;;;4966238;28;20041;-77
2023/07/27 08:42:55;;;;;;;3.20;2.00;;;;;;;;;;4956334;28;20070;-77
2023/07/27 08:45:21;;;;;;;1.83;1.73;;;;;;;;;;4954561;28;20049;-77
2023/07/27 08:47:52;;;;;;;2.58;1.73;;;;;;;;;;4972158;28;20484;-77
2023/07/27 08:50:19;;;;;;;9.02;2.20;;;;;;;;;;4961792;28;20042;-77
2023/07/27 08:52:45;;;;;;;2.92;1.80;;;;;;;;;;4980862;28;20048;-77
2023/07/27 08:55:11;;;;;;;1.90;1.80;;;;;;;;;;4962412;28;20117;-77
2023/07/27 08:57:36;;;;;;;2.28;2.08;;;;;;;;;;4980516;28;20037;-77
2023/07/27 09:00:02;;;;;;;3.55;2.08;;;;;;;;;;4964069;28;20507;-77
2023/07/27 09:02:28;;;;;;;2.33;2.00;;;;;;;;;;4972875;28;20121;-77
2023/07/27 09:04:53;;;;;;;2.75;1.90;;;;;;;;;;4976109;28;20109;-77
2023/07/27 09:07:19;;;;;;;2.45;2.20;;;;;;;;;;4999561;28;20045;-77
2023/07/27 09:09:53;;;;;;;3.45;2.33;;;;;;;;;;4985330;28;20039;-77
2023/07/27 09:12:22;;;;;;;3.35;2.50;;;;;;;;;;4983537;28;20030;-77
2023/07/27 09:14:47;;;;;;;3.05;2.40;;;;;;;;;;4989124;28;20034;-77
2023/07/27 09:17:13;;;;;;;4.93;2.25;;;;;;;;;;4984259;28;20042;-77
2023/07/27 09:19:40;;;;;;;2.47;2.28;;;;;;;;;;4985050;28;20034;-77
2023/07/27 09:22:07;;;;;;;2.17;1.98;;;;;;;;;;4985427;28;20031;-76
2023/07/27 09:24:34;;;;;;;2.92;2.00;;;;;;;;;;4985850;28;20069;-77
2023/07/27 09:27:01;;;;;;;13.07;3.60;;;;;;;;;;4983924;28;20060;-77
2023/07/27 09:29:26;;;;;;;9.48;3.60;;;;;;;;;;4984584;28;20089;-77
2023/07/27 09:31:57;;;;;;;7.90;3.03;;;;;;;;;;4984180;28;20038;-77
2023/07/27 09:34:22;;;;;;;10.13;2.20;;;;;;;;;;4989599;28;20043;-77
2023/07/27 09:36:48;;;;;;;6.40;1.98;;;;;;;;;;4989488;28;20038;-77
2023/07/27 09:39:15;;;;;;;5.35;1.90;;;;;;;;;;4986802;28;20034;-77
2023/07/27 09:41:45;;;;;;;5.68;1.98;;;;;;;;;;4988630;28;20037;-77
2023/07/27 09:44:15;;;;;;;5.00;2.45;;;;;;;;;;4987412;28;20042;-77
2023/07/27 09:46:46;;;;;;;4.03;1.80;;;;;;;;;;4990292;28;20042;-77
2023/07/27 09:49:16;;;;;;;3.13;1.98;;;;;;;;;;4986042;28;20106;-77
2023/07/27 09:51:41;;;;;;;3.90;1.70;;;;;;;;;;4988477;28;20030;-77
2023/07/27 09:54:07;;;;;;;5.43;2.10;;;;;;;;;;4989526;28;20033;-77
2023/07/27 09:56:33;;;;;;;1.90;1.80;;;;;;;;;;4989687;28;20018;-77
2023/07/27 09:59:00;;;;;;;7.95;1.73;;;;;;;;;;4989738;28;20061;-77
2023/07/27 10:01:27;;;;;;;1.77;1.67;;;;;;;;;;4990591;28;20121;-77
2023/07/27 10:03:57;;;;;;;6.10;2.00;;;;;;;;;;4989387;28;20040;-77
2023/07/27 10:06:24;;;;;;;2.55;1.80;;;;;;;;;;4989283;28;20046;-77
2023/07/27 10:08:50;;;;;;;1.92;1.83;;;;;;;;;;4987550;28;20030;-77
2023/07/27 10:11:15;;;;;;;5.65;1.70;;;;;;;;;;4987480;28;20536;-77
2023/07/27 10:13:43;;;;;;;3.50;1.90;;;;;;;;;;4987466;28;20077;-77
2023/07/27 10:16:11;;;;;;;6.55;2.13;;;;;;;;;;4990592;28;20061;-77
2023/07/27 10:18:45;;;;;;;2.38;1.65;;;;;;;;;;4989404;28;20041;-77
2023/07/27 10:21:23;;;;;;;3.17;1.85;;;;;;;;;;4995350;28;20057;-77
2023/07/27 10:24:06;;;;;;;2.67;1.80;;;;;;;;;;4990381;28;20030;-77
2023/07/27 10:27:04;;;;;;;8.93;2.03;;;;;;;;;;4971672;28;20154;-77
2023/07/27 10:29:29;;;;;;;1.73;1.48;;;;;;;;;;4998709;28;20287;-76
2023/07/27 10:32:11;;;;;;;2.92;1.70;;;;;;;;;;4978693;28;21068;-77
2023/07/27 10:34:38;;;;;;;1.70;1.50;;;;;;;;;;4987474;28;20044;-76
2023/07/27 10:37:05;;;;;;;1.85;1.67;;;;;;;;;;4987161;28;20147;-77
2023/07/27 10:39:31;;;;;;;1.73;1.63;;;;;;;;;;4983295;28;20030;-77
2023/07/27 10:42:04;;;;;;;3.15;1.77;;;;;;;;;;4985562;28;20029;-76
2023/07/27 10:44:42;;;;;;;1.83;1.70;;;;;;;;;;4968467;28;20065;-77
2023/07/27 10:47:15;;;;;;;4.22;1.52;;;;;;;;;;4982673;28;20034;-77
2023/07/27 10:49:43;;;;;;;2.17;1.87;;;;;;;;;;4988940;28;20035;-77
2023/07/27 10:52:12;;;;;;;2.63;1.80;;;;;;;;;;4988437;28;20270;-77
2023/07/27 10:54:40;;;;;;;2.25;1.60;;;;;;;;;;4990592;28;20494;-77
2023/07/27 10:57:06;;;;;;;5.43;1.73;;;;;;;;;;4994041;28;20088;-76
2023/07/27 10:59:35;;;;;;;1.60;1.48;;;;;;;;;;4990396;28;20065;-77
2023/07/27 11:02:01;;;;;;;2.33;1.50;;;;;;;;;;4990864;28;20030;-77
2023/07/27 11:04:27;;;;;;;5.40;2.00;;;;;;;;;;4997154;28;20112;-77
2023/07/27 11:06:53;;;;;;;9.55;1.83;;;;;;;;;;4989050;28;20550;-77
2023/07/27 11:09:18;;;;;;;5.60;2.00;;;;;;;;;;4986641;28;20018;-77
2023/07/27 11:11:44;;;;;;;1.80;1.70;;;;;;;;;;4989025;28;20508;-76
2023/07/27 11:14:10;;;;;;;2.17;1.70;;;;;;;;;;4986984;28;20042;-77
2023/07/27 11:16:39;;;;;;;2.17;1.70;;;;;;;;;;4988111;28;20523;-77
2023/07/27 11:19:09;;;;;;;2.10;1.77;;;;;;;;;;4988085;28;20450;-76
2023/07/27 11:21:40;;;;;;;3.45;1.75;;;;;;;;;;4988460;28;20035;-77
2023/07/27 11:24:07;;;;;;;5.43;2.25;;;;;;;;;;4988133;28;20029;-77
2023/07/27 11:26:32;;;;;;;5.90;1.85;;;;;;;;;;4981249;28;20426;-76
2023/07/27 11:29:00;;;;;;;2.72;2.03;;;;;;;;;;4986846;28;20042;-77
2023/07/27 11:31:26;;;;;;;2.83;1.92;;;;;;;;;;5001260;28;20037;-77
2023/07/27 11:33:56;;;;;;;5.53;1.70;;;;;;;;;;4987379;28;20034;-76
2023/07/27 11:36:21;;;;;;;2.45;1.70;;;;;;;;;;4987091;28;20046;-76
2023/07/27 11:38:47;;;;;;;5.28;1.60;;;;;;;;;;4987316;28;20130;-76
2023/07/27 11:41:12;;;;;;;2.05;1.70;;;;;;;;;;4987297;28;20041;-77
2023/07/27 11:43:38;;;;;;;1.70;1.60;;;;;;;;;;4988731;28;20038;-77
2023/07/27 11:46:04;;;;;;;2.08;1.60;;;;;;;;;;4987811;28;20511;-76
2023/07/27 11:48:31;;;;;;;2.90;1.70;;;;;;;;;;4985667;28;20037;-77
2023/07/27 11:50:58;;;;;;;4.63;2.08;;;;;;;;;;4986591;28;20052;-77
2023/07/27 11:53:26;;;;;;;2.30;1.80;;;;;;;;;;4984697;28;20091;-76
2023/07/27 11:55:52;;;;;;;1.67;1.50;;;;;;;;;;4985312;28;20399;-77
2023/07/27 11:58:17;;;;;;;5.75;1.80;;;;;;;;;;4985216;28;20045;-76
2023/07/27 12:00:50;;;;;;;2.80;1.98;;;;;;;;;;4983194;28;20042;-77
2023/07/27 12:03:19;;;;;;;2.15;1.70;;;;;;;;;;4985919;28;20029;-76
2023/07/27 12:05:45;;;;;;;2.25;1.52;;;;;;;;;;4991567;28;20479;-77
2023/07/27 12:08:11;;;;;;;1.30;1.20;;;;;;;;;;4987883;28;20113;-77
2023/07/27 12:10:36;;;;;;;2.28;1.75;;;;;;;;;;4982392;28;20073;-76
2023/07/27 12:13:05;;;;;;;1.95;1.60;;;;;;;;;;4985574;28;20097;-78
2023/07/27 12:15:31;;;;;;;2.72;1.60;;;;;;;;;;4987113;28;20045;-78
2023/07/27 12:17:59;;;;;;;3.50;1.77;;;;;;;;;;4986219;28;20463;-78
2023/07/27 12:20:26;;;;;;;5.47;1.80;;;;;;;;;;4982849;28;20446;-77
2023/07/27 12:22:51;;;;;;;5.15;2.03;;;;;;;;;;4986344;28;20049;-78
2023/07/27 12:25:17;;;;;;;1.88;1.77;;;;;;;;;;4988929;28;20513;-77
2023/07/27 12:27:42;;;;;;;3.00;1.73;;;;;;;;;;4989488;28;20057;-77
2023/07/27 12:30:09;;;;;;;3.75;2.10;;;;;;;;;;4985268;28;20363;-78
2023/07/27 12:32:35;;;;;;;2.88;1.90;;;;;;;;;;4987622;28;20018;-78
2023/07/27 12:35:00;;;;;;;2.20;1.92;;;;;;;;;;4987146;28;20108;-77
2023/07/27 12:37:26;;;;;;;1.67;1.52;;;;;;;;;;4986843;28;20138;-77
2023/07/27 12:39:51;;;;;;;2.10;1.70;;;;;;;;;;4978854;28;20039;-77
2023/07/27 12:42:17;;;;;;;1.85;1.75;;;;;;;;;;4985366;28;20133;-78
2023/07/27 12:44:42;;;;;;;2.03;1.80;;;;;;;;;;4978591;28;20026;-77
2023/07/27 12:47:07;;;;;;;3.70;1.98;;;;;;;;;;4988935;28;20092;-78
2023/07/27 12:49:32;;;;;;;14.40;2.35;;;;;;;;;;4988267;28;20052;-78
2023/07/27 12:51:58;;;;;;;13.88;1.77;;;;;;;;;;5003504;28;20034;-78
2023/07/27 12:54:23;;;;;;;1.85;1.70;;;;;;;;;;4984252;28;20450;-77
2023/07/27 12:56:48;;;;;;;2.75;1.67;;;;;;;;;;4986392;28;20029;-78
2023/07/27 12:59:14;;;;;;;10.25;1.88;;;;;;;;;;4985548;28;20038;-77
2023/07/27 13:01:39;;;;;;;9.27;1.98;;;;;;;;;;4983966;28;20494;-78
2023/07/27 13:04:04;;;;;;;3.67;2.00;;;;;;;;;;5001743;28;20045;-77
2023/07/27 13:06:29;;;;;;;3.67;1.95;;;;;;;;;;4987338;28;20034;-77
2023/07/27 13:08:55;;;;;;;5.65;1.63;;;;;;;;;;4988826;28;20135;-77
2023/07/27 13:11:21;;;;;;;1.92;1.70;;;;;;;;;;4985322;28;20038;-77
2023/07/27 13:13:46;;;;;;;3.67;1.70;;;;;;;;;;4986933;28;20487;-77
2023/07/27 13:16:11;;;;;;;7.00;2.10;;;;;;;;;;4987377;28;20124;-78
2023/07/27 13:18:37;;;;;;;4.57;1.85;;;;;;;;;;4987317;28;20081;-78
2023/07/27 13:21:02;;;;;;;1.50;1.40;;;;;;;;;;4985776;28;20041;-77
2023/07/27 13:23:27;;;;;;;2.90;1.70;;;;;;;;;;4977528;28;20049;-78
2023/07/27 13:25:53;;;;;;;2.97;1.98;;;;;;;;;;4987914;28;20034;-78
2023/07/27 13:28:18;;;;;;;3.72;2.05;;;;;;;;;;4987163;28;20042;-78
2023/07/27 13:30:44;;;;;;;3.15;1.70;;;;;;;;;;4987374;28;20909;-78
2023/07/27 13:33:09;;;;;;;3.92;1.67;;;;;;;;;;4987314;28;20026;-78
2023/07/27 13:35:35;;;;;;;6.35;1.92;;;;;;;;;;4987523;28;20045;-78
2023/07/27 13:38:00;;;;;;;2.10;1.90;;;;;;;;;;4987195;28;20030;-78
2023/07/27 13:40:26;;;;;;;4.30;1.75;;;;;;;;;;4987956;28;20294;-77
2023/07/27 13:42:52;;;;;;;2.38;1.80;;;;;;;;;;4984972;28;20054;-78
2023/07/27 13:45:17;;;;;;;1.73;1.63;;;;;;;;;;4977869;28;20018;-78
2023/07/27 13:47:43;;;;;;;5.93;1.80;;;;;;;;;;4990372;28;20076;-78
2023/07/27 13:50:08;;;;;;;1.60;1.50;;;;;;;;;;4989452;28;20039;-77
2023/07/27 13:52:34;;;;;;;2.25;1.65;;;;;;;;;;4988754;28;20225;-78
2023/07/27 13:54:59;;;;;;;1.67;1.58;;;;;;;;;;4988383;28;20039;-78
2023/07/27 13:57:24;;;;;;;2.05;1.90;;;;;;;;;;4986009;28;20043;-77
2023/07/27 13:59:49;;;;;;;2.47;1.80;;;;;;;;;;4988295;28;20026;-78
2023/07/27 14:02:15;;;;;;;2.20;2.00;;;;;;;;;;5001364;28;20530;-78
2023/07/27 14:04:40;;;;;;;3.80;1.80;;;;;;;;;;4984603;28;20121;-78
2023/07/27 14:07:05;;;;;;;2.03;1.70;;;;;;;;;;4988474;28;20065;-78
2023/07/27 14:09:31;;;;;;;3.65;2.00;;;;;;;;;;4978395;28;20403;-77
2023/07/27 14:11:56;;;;;;;9.18;2.08;;;;;;;;;;4943431;28;20022;-78
2023/07/27 14:14:22;;;;;;;4.60;2.10;;;;;;;;;;4983845;28;20466;-78
2023/07/27 14:16:47;;;;;;;2.88;1.90;;;;;;;;;;4962819;28;20056;-78
2023/07/27 14:19:12;;;;;;;4.00;2.03;;;;;;;;;;4930995;28;20464;-79
2023/07/27 14:21:38;;;;;;;4.65;2.00;;;;;;;;;;4920056;28;20076;-79
2023/07/27 14:24:03;;;;;;;3.50;1.85;;;;;;;;;;4935538;28;20470;-78
2023/07/27 14:26:29;;;;;;;5.47;1.88;;;;;;;;;;4946777;28;20024;-78
2023/07/27 14:28:54;;;;;;;3.00;1.90;;;;;;;;;;4992655;28;20045;-78
2023/07/27 14:31:19;;;;;;;3.20;2.20;;;;;;;;;;4934049;28;20530;-78
2023/07/27 14:33:46;;;;;;;2.72;1.70;;;;;;;;;;4944121;28;20036;-79
2023/07/27 14:36:11;;;;;;;3.55;1.90;;;;;;;;;;4938596;28;20043;-79
2023/07/27 14:38:37;;;;;;;1.70;1.60;;;;;;;;;;4926848;28;20028;-79